sensor_id;sensor_type;location;lat;lon;timestamp;pressure;altitude;pressure_sealevel;temperature
11240;BMP180;5677;48.488;13.436;2022-09-09T00:01:52;97601.00;;;20.70
11240;BMP180;5677;48.488;13.436;2022-09-09T00:04:27;97601.00;;;20.70
11240;BMP180;5677;48.488;13.436;2022-09-09T00:07:08;97600.00;;;20.70
11240;BMP180;5677;48.488;13.436;2022-09-09T00:09:45;97595.00;;;20.70
11240;BMP180;5677;48.488;13.436;2022-09-09T00:12:24;97597.00;;;20.70
11240;BMP180;5677;48.488;13.436;2022-09-09T00:14:58;97603.00;;;20.70
11240;BMP180;5677;48.488;13.436;2022-09-09T00:17:36;97595.00;;;20.70
11240;BMP180;5677;48.488;13.436;2022-09-09T00:20:16;97597.00;;;20.70
11240;BMP180;5677;48.488;13.436;2022-09-09T00:22:53;97593.00;;;20.70
11240;BMP180;5677;48.488;13.436;2022-09-09T00:25:30;97588.00;;;20.70
11240;BMP180;5677;48.488;13.436;2022-09-09T00:28:00;97582.00;;;20.70
11240;BMP180;5677;48.488;13.436;2022-09-09T00:30:33;97580.00;;;20.70
11240;BMP180;5677;48.488;13.436;2022-09-09T00:33:12;97586.00;;;20.70
11240;BMP180;5677;48.488;13.436;2022-09-09T00:35:47;97584.00;;;20.70
11240;BMP180;5677;48.488;13.436;2022-09-09T00:38:20;97589.00;;;20.70
11240;BMP180;5677;48.488;13.436;2022-09-09T00:40:56;97583.00;;;20.70
11240;BMP180;5677;48.488;13.436;2022-09-09T00:43:29;97584.00;;;20.70
11240;BMP180;5677;48.488;13.436;2022-09-09T00:46:41;97579.00;;;20.70
11240;BMP180;5677;48.488;13.436;2022-09-09T00:49:30;97579.00;;;20.60
11240;BMP180;5677;48.488;13.436;2022-09-09T00:52:16;97574.00;;;20.60
11240;BMP180;5677;48.488;13.436;2022-09-09T00:54:57;97575.00;;;20.60
11240;BMP180;5677;48.488;13.436;2022-09-09T00:57:30;97570.00;;;20.60
11240;BMP180;5677;48.488;13.436;2022-09-09T01:00:18;97571.00;;;20.60
11240;BMP180;5677;48.488;13.436;2022-09-09T01:06:12;97573.00;;;20.60
11240;BMP180;5677;48.488;13.436;2022-09-09T01:09:08;97575.00;;;20.60
11240;BMP180;5677;48.488;13.436;2022-09-09T01:11:52;97588.00;;;20.60
11240;BMP180;5677;48.488;13.436;2022-09-09T01:14:34;97588.00;;;20.60
11240;BMP180;5677;48.488;13.436;2022-09-09T01:17:11;97593.00;;;20.60
11240;BMP180;5677;48.488;13.436;2022-09-09T01:19:56;97588.00;;;20.60
11240;BMP180;5677;48.488;13.436;2022-09-09T01:22:34;97594.00;;;20.60
11240;BMP180;5677;48.488;13.436;2022-09-09T01:25:56;97594.00;;;20.60
11240;BMP180;5677;48.488;13.436;2022-09-09T01:28:32;97591.00;;;20.60
11240;BMP180;5677;48.488;13.436;2022-09-09T01:31:02;97594.00;;;20.60
11240;BMP180;5677;48.488;13.436;2022-09-09T01:33:29;97593.00;;;20.60
11240;BMP180;5677;48.488;13.436;2022-09-09T01:36:03;97587.00;;;20.60
11240;BMP180;5677;48.488;13.436;2022-09-09T01:38:33;97586.00;;;20.60
11240;BMP180;5677;48.488;13.436;2022-09-09T01:41:03;97590.00;;;20.60
11240;BMP180;5677;48.488;13.436;2022-09-09T01:43:30;97588.00;;;20.60
11240;BMP180;5677;48.488;13.436;2022-09-09T01:46:01;97600.00;;;20.60
11240;BMP180;5677;48.488;13.436;2022-09-09T01:48:29;97604.00;;;20.60
11240;BMP180;5677;48.488;13.436;2022-09-09T01:50:57;97590.00;;;20.60
11240;BMP180;5677;48.488;13.436;2022-09-09T01:53:24;97602.00;;;20.60
11240;BMP180;5677;48.488;13.436;2022-09-09T01:56:07;97597.00;;;20.60
11240;BMP180;5677;48.488;13.436;2022-09-09T01:58:51;97601.00;;;20.60
11240;BMP180;5677;48.488;13.436;2022-09-09T02:01:37;97600.00;;;20.50
11240;BMP180;5677;48.488;13.436;2022-09-09T02:04:22;97599.00;;;20.50
11240;BMP180;5677;48.488;13.436;2022-09-09T02:06:55;97598.00;;;20.60
11240;BMP180;5677;48.488;13.436;2022-09-09T02:09:25;97597.00;;;20.50
11240;BMP180;5677;48.488;13.436;2022-09-09T02:12:00;97605.00;;;20.50
11240;BMP180;5677;48.488;13.436;2022-09-09T02:14:36;97605.00;;;20.50
11240;BMP180;5677;48.488;13.436;2022-09-09T02:17:10;97605.00;;;20.50
11240;BMP180;5677;48.488;13.436;2022-09-09T02:19:44;97608.00;;;20.50
11240;BMP180;5677;48.488;13.436;2022-09-09T02:22:12;97605.00;;;20.50
11240;BMP180;5677;48.488;13.436;2022-09-09T02:24:40;97608.00;;;20.50
11240;BMP180;5677;48.488;13.436;2022-09-09T02:27:10;97611.00;;;20.50
11240;BMP180;5677;48.488;13.436;2022-09-09T02:29:41;97612.00;;;20.50
11240;BMP180;5677;48.488;13.436;2022-09-09T02:32:14;97607.00;;;20.50
11240;BMP180;5677;48.488;13.436;2022-09-09T02:34:46;97608.00;;;20.50
11240;BMP180;5677;48.488;13.436;2022-09-09T02:37:17;97608.00;;;20.50
11240;BMP180;5677;48.488;13.436;2022-09-09T02:39:45;97615.00;;;20.50
11240;BMP180;5677;48.488;13.436;2022-09-09T02:42:14;97620.00;;;20.50
11240;BMP180;5677;48.488;13.436;2022-09-09T02:44:42;97624.00;;;20.50
11240;BMP180;5677;48.488;13.436;2022-09-09T02:47:26;97620.00;;;20.50
11240;BMP180;5677;48.488;13.436;2022-09-09T02:50:08;97619.00;;;20.50
11240;BMP180;5677;48.488;13.436;2022-09-09T02:52:50;97611.00;;;20.50
11240;BMP180;5677;48.488;13.436;2022-09-09T02:55:37;97607.00;;;20.50
11240;BMP180;5677;48.488;13.436;2022-09-09T02:58:09;97610.00;;;20.50
11240;BMP180;5677;48.488;13.436;2022-09-09T03:00:39;97609.00;;;20.50
11240;BMP180;5677;48.488;13.436;2022-09-09T03:03:07;97603.00;;;20.50
11240;BMP180;5677;48.488;13.436;2022-09-09T03:05:35;97604.00;;;20.50
11240;BMP180;5677;48.488;13.436;2022-09-09T03:08:04;97597.00;;;20.50
11240;BMP180;5677;48.488;13.436;2022-09-09T03:10:31;97596.00;;;20.40
11240;BMP180;5677;48.488;13.436;2022-09-09T03:12:58;97587.00;;;20.40
11240;BMP180;5677;48.488;13.436;2022-09-09T03:15:27;97591.00;;;20.40
11240;BMP180;5677;48.488;13.436;2022-09-09T03:17:57;97599.00;;;20.40
11240;BMP180;5677;48.488;13.436;2022-09-09T03:20:24;97595.00;;;20.40
11240;BMP180;5677;48.488;13.436;2022-09-09T03:22:52;97599.00;;;20.40
11240;BMP180;5677;48.488;13.436;2022-09-09T03:25:20;97604.00;;;20.40
11240;BMP180;5677;48.488;13.436;2022-09-09T03:27:49;97608.00;;;20.40
11240;BMP180;5677;48.488;13.436;2022-09-09T03:30:20;97609.00;;;20.40
11240;BMP180;5677;48.488;13.436;2022-09-09T03:32:48;97611.00;;;20.40
11240;BMP180;5677;48.488;13.436;2022-09-09T03:35:15;97607.00;;;20.40
11240;BMP180;5677;48.488;13.436;2022-09-09T03:37:42;97620.00;;;20.40
11240;BMP180;5677;48.488;13.436;2022-09-09T03:40:10;97605.00;;;20.40
11240;BMP180;5677;48.488;13.436;2022-09-09T03:42:38;97605.00;;;20.40
11240;BMP180;5677;48.488;13.436;2022-09-09T03:45:09;97603.00;;;20.40
11240;BMP180;5677;48.488;13.436;2022-09-09T03:47:36;97600.00;;;20.40
11240;BMP180;5677;48.488;13.436;2022-09-09T03:50:07;97607.00;;;20.40
11240;BMP180;5677;48.488;13.436;2022-09-09T03:52:35;97602.00;;;20.40
11240;BMP180;5677;48.488;13.436;2022-09-09T03:55:03;97595.00;;;20.40
11240;BMP180;5677;48.488;13.436;2022-09-09T03:57:30;97587.00;;;20.40
11240;BMP180;5677;48.488;13.436;2022-09-09T04:00:00;97594.00;;;20.40
11240;BMP180;5677;48.488;13.436;2022-09-09T04:02:27;97594.00;;;20.40
11240;BMP180;5677;48.488;13.436;2022-09-09T04:04:54;97584.00;;;20.40
11240;BMP180;5677;48.488;13.436;2022-09-09T04:07:22;97583.00;;;20.40
11240;BMP180;5677;48.488;13.436;2022-09-09T04:09:49;97569.00;;;20.40
11240;BMP180;5677;48.488;13.436;2022-09-09T04:12:16;97568.00;;;20.40
11240;BMP180;5677;48.488;13.436;2022-09-09T04:14:43;97564.00;;;20.40
11240;BMP180;5677;48.488;13.436;2022-09-09T04:17:10;97567.00;;;20.40
11240;BMP180;5677;48.488;13.436;2022-09-09T04:19:37;97575.00;;;20.40
11240;BMP180;5677;48.488;13.436;2022-09-09T04:22:04;97579.00;;;20.40
11240;BMP180;5677;48.488;13.436;2022-09-09T04:24:32;97581.00;;;20.30
11240;BMP180;5677;48.488;13.436;2022-09-09T04:27:00;97567.00;;;20.30
11240;BMP180;5677;48.488;13.436;2022-09-09T04:29:27;97568.00;;;20.30
11240;BMP180;5677;48.488;13.436;2022-09-09T04:31:54;97563.00;;;20.30
11240;BMP180;5677;48.488;13.436;2022-09-09T04:34:21;97563.00;;;20.30
11240;BMP180;5677;48.488;13.436;2022-09-09T04:36:48;97580.00;;;20.30
11240;BMP180;5677;48.488;13.436;2022-09-09T04:39:17;97588.00;;;20.30
11240;BMP180;5677;48.488;13.436;2022-09-09T04:41:46;97588.00;;;20.30
11240;BMP180;5677;48.488;13.436;2022-09-09T04:44:14;97582.00;;;20.30
11240;BMP180;5677;48.488;13.436;2022-09-09T04:46:41;97592.00;;;20.30
11240;BMP180;5677;48.488;13.436;2022-09-09T04:49:08;97595.00;;;20.30
11240;BMP180;5677;48.488;13.436;2022-09-09T04:51:35;97597.00;;;20.30
11240;BMP180;5677;48.488;13.436;2022-09-09T04:54:02;97598.00;;;20.30
11240;BMP180;5677;48.488;13.436;2022-09-09T04:56:29;97591.00;;;20.30
11240;BMP180;5677;48.488;13.436;2022-09-09T04:58:57;97589.00;;;20.30
11240;BMP180;5677;48.488;13.436;2022-09-09T05:01:25;97587.00;;;20.30
11240;BMP180;5677;48.488;13.436;2022-09-09T05:03:52;97595.00;;;20.30
11240;BMP180;5677;48.488;13.436;2022-09-09T05:06:21;97594.00;;;20.30
11240;BMP180;5677;48.488;13.436;2022-09-09T05:08:49;97588.00;;;20.30
11240;BMP180;5677;48.488;13.436;2022-09-09T05:11:18;97585.00;;;20.30
11240;BMP180;5677;48.488;13.436;2022-09-09T05:13:46;97587.00;;;20.30
11240;BMP180;5677;48.488;13.436;2022-09-09T05:16:15;97593.00;;;20.30
11240;BMP180;5677;48.488;13.436;2022-09-09T05:18:43;97590.00;;;20.30
11240;BMP180;5677;48.488;13.436;2022-09-09T05:21:11;97590.00;;;20.30
11240;BMP180;5677;48.488;13.436;2022-09-09T05:23:38;97598.00;;;20.30
11240;BMP180;5677;48.488;13.436;2022-09-09T05:26:09;97601.00;;;20.30
11240;BMP180;5677;48.488;13.436;2022-09-09T05:28:38;97599.00;;;20.30
11240;BMP180;5677;48.488;13.436;2022-09-09T05:31:08;97593.00;;;20.30
11240;BMP180;5677;48.488;13.436;2022-09-09T05:33:39;97588.00;;;20.30
11240;BMP180;5677;48.488;13.436;2022-09-09T05:36:10;97592.00;;;20.30
11240;BMP180;5677;48.488;13.436;2022-09-09T05:38:39;97591.00;;;20.30
11240;BMP180;5677;48.488;13.436;2022-09-09T05:41:08;97588.00;;;20.30
11240;BMP180;5677;48.488;13.436;2022-09-09T05:43:35;97588.00;;;20.30
11240;BMP180;5677;48.488;13.436;2022-09-09T05:46:06;97589.00;;;20.30
11240;BMP180;5677;48.488;13.436;2022-09-09T05:48:35;97586.00;;;20.30
11240;BMP180;5677;48.488;13.436;2022-09-09T05:51:07;97585.00;;;20.30
11240;BMP180;5677;48.488;13.436;2022-09-09T05:53:34;97587.00;;;20.20
11240;BMP180;5677;48.488;13.436;2022-09-09T05:56:03;97595.00;;;20.30
11240;BMP180;5677;48.488;13.436;2022-09-09T05:58:31;97598.00;;;20.30
11240;BMP180;5677;48.488;13.436;2022-09-09T06:01:03;97591.00;;;20.30
11240;BMP180;5677;48.488;13.436;2022-09-09T06:03:30;97594.00;;;20.20
11240;BMP180;5677;48.488;13.436;2022-09-09T06:05:59;97599.00;;;20.20
11240;BMP180;5677;48.488;13.436;2022-09-09T06:08:27;97606.00;;;20.20
11240;BMP180;5677;48.488;13.436;2022-09-09T06:11:02;97599.00;;;20.20
11240;BMP180;5677;48.488;13.436;2022-09-09T06:13:29;97587.00;;;20.20
11240;BMP180;5677;48.488;13.436;2022-09-09T06:15:57;97598.00;;;20.20
11240;BMP180;5677;48.488;13.436;2022-09-09T06:18:24;97594.00;;;20.20
11240;BMP180;5677;48.488;13.436;2022-09-09T06:20:57;97594.00;;;20.20
11240;BMP180;5677;48.488;13.436;2022-09-09T06:23:24;97595.00;;;20.20
11240;BMP180;5677;48.488;13.436;2022-09-09T06:26:04;97592.00;;;20.20
11240;BMP180;5677;48.488;13.436;2022-09-09T06:28:32;97593.00;;;20.20
11240;BMP180;5677;48.488;13.436;2022-09-09T06:31:00;97588.00;;;20.20
11240;BMP180;5677;48.488;13.436;2022-09-09T06:33:30;97589.00;;;20.20
11240;BMP180;5677;48.488;13.436;2022-09-09T06:35:57;97588.00;;;20.20
11240;BMP180;5677;48.488;13.436;2022-09-09T06:38:24;97588.00;;;20.20
11240;BMP180;5677;48.488;13.436;2022-09-09T06:40:53;97576.00;;;20.20
11240;BMP180;5677;48.488;13.436;2022-09-09T06:43:21;97579.00;;;20.20
11240;BMP180;5677;48.488;13.436;2022-09-09T06:45:58;97579.00;;;20.20
11240;BMP180;5677;48.488;13.436;2022-09-09T06:48:27;97598.00;;;20.20
11240;BMP180;5677;48.488;13.436;2022-09-09T06:51:02;97597.00;;;20.20
11240;BMP180;5677;48.488;13.436;2022-09-09T06:53:29;97600.00;;;20.20
11240;BMP180;5677;48.488;13.436;2022-09-09T06:55:58;97591.00;;;20.20
11240;BMP180;5677;48.488;13.436;2022-09-09T06:58:25;97596.00;;;20.20
11240;BMP180;5677;48.488;13.436;2022-09-09T07:00:51;97598.00;;;20.20
11240;BMP180;5677;48.488;13.436;2022-09-09T07:03:18;97605.00;;;20.20
11240;BMP180;5677;48.488;13.436;2022-09-09T07:05:54;97612.00;;;20.20
11240;BMP180;5677;48.488;13.436;2022-09-09T07:08:22;97604.00;;;20.20
11240;BMP180;5677;48.488;13.436;2022-09-09T07:10:50;97613.00;;;20.20
11240;BMP180;5677;48.488;13.436;2022-09-09T07:13:24;97610.00;;;20.20
11240;BMP180;5677;48.488;13.436;2022-09-09T07:15:51;97604.00;;;20.20
11240;BMP180;5677;48.488;13.436;2022-09-09T07:18:18;97602.00;;;20.20
11240;BMP180;5677;48.488;13.436;2022-09-09T07:20:53;97595.00;;;20.20
11240;BMP180;5677;48.488;13.436;2022-09-09T07:23:21;97601.00;;;20.20
11240;BMP180;5677;48.488;13.436;2022-09-09T07:25:48;97603.00;;;20.20
11240;BMP180;5677;48.488;13.436;2022-09-09T07:28:16;97612.00;;;20.20
11240;BMP180;5677;48.488;13.436;2022-09-09T07:30:53;97614.00;;;20.20
11240;BMP180;5677;48.488;13.436;2022-09-09T07:33:20;97609.00;;;20.20
11240;BMP180;5677;48.488;13.436;2022-09-09T07:35:47;97613.00;;;20.20
11240;BMP180;5677;48.488;13.436;2022-09-09T07:38:13;97611.00;;;20.20
11240;BMP180;5677;48.488;13.436;2022-09-09T07:40:41;97611.00;;;20.20
11240;BMP180;5677;48.488;13.436;2022-09-09T07:43:08;97619.00;;;20.20
11240;BMP180;5677;48.488;13.436;2022-09-09T07:45:35;97623.00;;;20.20
11240;BMP180;5677;48.488;13.436;2022-09-09T07:48:04;97633.00;;;20.20
11240;BMP180;5677;48.488;13.436;2022-09-09T07:50:32;97637.00;;;20.20
11240;BMP180;5677;48.488;13.436;2022-09-09T07:52:59;97640.00;;;20.20
11240;BMP180;5677;48.488;13.436;2022-09-09T07:55:25;97641.00;;;20.20
11240;BMP180;5677;48.488;13.436;2022-09-09T07:57:55;97646.00;;;20.20
11240;BMP180;5677;48.488;13.436;2022-09-09T08:00:22;97641.00;;;20.20
11240;BMP180;5677;48.488;13.436;2022-09-09T08:02:49;97638.00;;;20.20
11240;BMP180;5677;48.488;13.436;2022-09-09T08:05:17;97622.00;;;20.20
11240;BMP180;5677;48.488;13.436;2022-09-09T08:07:44;97623.00;;;20.20
11240;BMP180;5677;48.488;13.436;2022-09-09T08:10:11;97630.00;;;20.20
11240;BMP180;5677;48.488;13.436;2022-09-09T08:12:40;97633.00;;;20.20
11240;BMP180;5677;48.488;13.436;2022-09-09T08:15:07;97623.00;;;20.20
11240;BMP180;5677;48.488;13.436;2022-09-09T08:17:34;97622.00;;;20.20
11240;BMP180;5677;48.488;13.436;2022-09-09T08:20:04;97617.00;;;20.20
11240;BMP180;5677;48.488;13.436;2022-09-09T08:22:33;97616.00;;;20.20
11240;BMP180;5677;48.488;13.436;2022-09-09T08:25:04;97617.00;;;20.20
11240;BMP180;5677;48.488;13.436;2022-09-09T08:27:32;97619.00;;;20.20
11240;BMP180;5677;48.488;13.436;2022-09-09T08:29:59;97626.00;;;20.20
11240;BMP180;5677;48.488;13.436;2022-09-09T08:32:26;97634.00;;;20.20
11240;BMP180;5677;48.488;13.436;2022-09-09T08:34:53;97646.00;;;20.20
11240;BMP180;5677;48.488;13.436;2022-09-09T08:37:20;97641.00;;;20.20
11240;BMP180;5677;48.488;13.436;2022-09-09T08:39:48;97642.00;;;20.20
11240;BMP180;5677;48.488;13.436;2022-09-09T08:42:34;97652.00;;;20.20
11240;BMP180;5677;48.488;13.436;2022-09-09T08:45:25;97662.00;;;20.20
11240;BMP180;5677;48.488;13.436;2022-09-09T08:48:22;97662.00;;;20.20
11240;BMP180;5677;48.488;13.436;2022-09-09T08:50:52;97665.00;;;20.20
11240;BMP180;5677;48.488;13.436;2022-09-09T08:53:29;97659.00;;;20.20
11240;BMP180;5677;48.488;13.436;2022-09-09T08:56:11;97652.00;;;20.20
11240;BMP180;5677;48.488;13.436;2022-09-09T08:58:47;97656.00;;;20.20
11240;BMP180;5677;48.488;13.436;2022-09-09T09:01:44;97661.00;;;20.20
11240;BMP180;5677;48.488;13.436;2022-09-09T09:04:32;97657.00;;;20.20
11240;BMP180;5677;48.488;13.436;2022-09-09T09:07:13;97657.00;;;20.20
11240;BMP180;5677;48.488;13.436;2022-09-09T09:09:57;97658.00;;;20.20
11240;BMP180;5677;48.488;13.436;2022-09-09T09:12:40;97660.00;;;20.20
11240;BMP180;5677;48.488;13.436;2022-09-09T09:15:16;97658.00;;;20.20
11240;BMP180;5677;48.488;13.436;2022-09-09T09:17:44;97658.00;;;20.20
11240;BMP180;5677;48.488;13.436;2022-09-09T09:20:14;97658.00;;;20.20
11240;BMP180;5677;48.488;13.436;2022-09-09T09:22:49;97667.00;;;20.20
11240;BMP180;5677;48.488;13.436;2022-09-09T09:25:19;97674.00;;;20.20
11240;BMP180;5677;48.488;13.436;2022-09-09T09:27:57;97683.00;;;20.20
11240;BMP180;5677;48.488;13.436;2022-09-09T09:30:29;97672.00;;;20.20
11240;BMP180;5677;48.488;13.436;2022-09-09T09:33:03;97682.00;;;20.20
11240;BMP180;5677;48.488;13.436;2022-09-09T09:35:32;97679.00;;;20.20
11240;BMP180;5677;48.488;13.436;2022-09-09T09:38:00;97683.00;;;20.20
11240;BMP180;5677;48.488;13.436;2022-09-09T09:40:27;97680.00;;;20.20
11240;BMP180;5677;48.488;13.436;2022-09-09T09:42:59;97680.00;;;20.20
11240;BMP180;5677;48.488;13.436;2022-09-09T09:45:34;97682.00;;;20.20
11240;BMP180;5677;48.488;13.436;2022-09-09T09:48:04;97693.00;;;20.20
11240;BMP180;5677;48.488;13.436;2022-09-09T09:50:33;97693.00;;;20.20
11240;BMP180;5677;48.488;13.436;2022-09-09T09:53:03;97690.00;;;20.20
11240;BMP180;5677;48.488;13.436;2022-09-09T09:55:33;97685.00;;;20.20
11240;BMP180;5677;48.488;13.436;2022-09-09T09:58:05;97680.00;;;20.20
11240;BMP180;5677;48.488;13.436;2022-09-09T10:00:33;97687.00;;;20.20
11240;BMP180;5677;48.488;13.436;2022-09-09T10:03:01;97694.00;;;20.20
11240;BMP180;5677;48.488;13.436;2022-09-09T10:05:30;97702.00;;;20.20
11240;BMP180;5677;48.488;13.436;2022-09-09T10:08:05;97701.00;;;20.20
11240;BMP180;5677;48.488;13.436;2022-09-09T10:10:51;97704.00;;;20.20
11240;BMP180;5677;48.488;13.436;2022-09-09T10:13:29;97712.00;;;20.20
11240;BMP180;5677;48.488;13.436;2022-09-09T10:16:17;97720.00;;;20.20
11240;BMP180;5677;48.488;13.436;2022-09-09T10:18:58;97719.00;;;20.20
11240;BMP180;5677;48.488;13.436;2022-09-09T10:22:02;97724.00;;;20.20
11240;BMP180;5677;48.488;13.436;2022-09-09T10:25:12;97718.00;;;20.20
11240;BMP180;5677;48.488;13.436;2022-09-09T10:28:07;97730.00;;;20.20
11240;BMP180;5677;48.488;13.436;2022-09-09T10:30:49;97733.00;;;20.20
11240;BMP180;5677;48.488;13.436;2022-09-09T10:33:28;97732.00;;;20.20
11240;BMP180;5677;48.488;13.436;2022-09-09T10:36:09;97732.00;;;20.20
11240;BMP180;5677;48.488;13.436;2022-09-09T10:38:41;97729.00;;;20.20
11240;BMP180;5677;48.488;13.436;2022-09-09T10:41:31;97716.00;;;20.20
11240;BMP180;5677;48.488;13.436;2022-09-09T10:44:30;97732.00;;;20.20
11240;BMP180;5677;48.488;13.436;2022-09-09T10:47:33;97738.00;;;20.20
11240;BMP180;5677;48.488;13.436;2022-09-09T10:50:40;97740.00;;;20.20
11240;BMP180;5677;48.488;13.436;2022-09-09T10:53:20;97743.00;;;20.20
11240;BMP180;5677;48.488;13.436;2022-09-09T10:55:56;97733.00;;;20.20
11240;BMP180;5677;48.488;13.436;2022-09-09T10:58:30;97733.00;;;20.20
11240;BMP180;5677;48.488;13.436;2022-09-09T11:01:08;97732.00;;;20.20
11240;BMP180;5677;48.488;13.436;2022-09-09T11:03:41;97729.00;;;20.20
11240;BMP180;5677;48.488;13.436;2022-09-09T11:06:16;97741.00;;;20.20
11240;BMP180;5677;48.488;13.436;2022-09-09T11:08:46;97726.00;;;20.20
11240;BMP180;5677;48.488;13.436;2022-09-09T11:11:25;97733.00;;;20.20
11240;BMP180;5677;48.488;13.436;2022-09-09T11:14:02;97725.00;;;20.20
11240;BMP180;5677;48.488;13.436;2022-09-09T11:16:39;97728.00;;;20.20
11240;BMP180;5677;48.488;13.436;2022-09-09T11:19:19;97721.00;;;20.20
11240;BMP180;5677;48.488;13.436;2022-09-09T11:21:50;97723.00;;;20.20
11240;BMP180;5677;48.488;13.436;2022-09-09T11:24:24;97711.00;;;20.20
11240;BMP180;5677;48.488;13.436;2022-09-09T11:26:58;97719.00;;;20.20
11240;BMP180;5677;48.488;13.436;2022-09-09T11:30:03;97708.00;;;20.20
11240;BMP180;5677;48.488;13.436;2022-09-09T11:35:54;97716.00;;;20.20
11240;BMP180;5677;48.488;13.436;2022-09-09T11:38:27;97709.00;;;20.20
11240;BMP180;5677;48.488;13.436;2022-09-09T11:40:58;97710.00;;;20.20
11240;BMP180;5677;48.488;13.436;2022-09-09T11:43:33;97715.00;;;20.20
11240;BMP180;5677;48.488;13.436;2022-09-09T11:46:05;97707.00;;;20.20
11240;BMP180;5677;48.488;13.436;2022-09-09T11:48:36;97706.00;;;20.20
11240;BMP180;5677;48.488;13.436;2022-09-09T11:51:08;97698.00;;;20.20
11240;BMP180;5677;48.488;13.436;2022-09-09T11:53:49;97708.00;;;20.20
11240;BMP180;5677;48.488;13.436;2022-09-09T11:56:26;97707.00;;;20.20
11240;BMP180;5677;48.488;13.436;2022-09-09T11:58:59;97708.00;;;20.20
11240;BMP180;5677;48.488;13.436;2022-09-09T12:01:41;97704.00;;;20.20
11240;BMP180;5677;48.488;13.436;2022-09-09T12:04:27;97703.00;;;20.20
11240;BMP180;5677;48.488;13.436;2022-09-09T12:07:00;97701.00;;;20.20
11240;BMP180;5677;48.488;13.436;2022-09-09T12:09:45;97713.00;;;20.20
11240;BMP180;5677;48.488;13.436;2022-09-09T12:12:38;97705.00;;;20.20
11240;BMP180;5677;48.488;13.436;2022-09-09T12:15:27;97707.00;;;20.20
11240;BMP180;5677;48.488;13.436;2022-09-09T12:17:57;97706.00;;;20.20
11240;BMP180;5677;48.488;13.436;2022-09-09T12:20:34;97697.00;;;20.20
11240;BMP180;5677;48.488;13.436;2022-09-09T12:23:23;97698.00;;;20.20
11240;BMP180;5677;48.488;13.436;2022-09-09T12:26:31;97692.00;;;20.20
11240;BMP180;5677;48.488;13.436;2022-09-09T12:29:13;97683.00;;;20.20
11240;BMP180;5677;48.488;13.436;2022-09-09T12:31:50;97679.00;;;20.20
11240;BMP180;5677;48.488;13.436;2022-09-09T12:34:38;97673.00;;;20.20
11240;BMP180;5677;48.488;13.436;2022-09-09T12:37:15;97679.00;;;20.20
11240;BMP180;5677;48.488;13.436;2022-09-09T12:39:49;97674.00;;;20.20
11240;BMP180;5677;48.488;13.436;2022-09-09T12:42:21;97680.00;;;20.20
11240;BMP180;5677;48.488;13.436;2022-09-09T12:44:57;97677.00;;;20.20
11240;BMP180;5677;48.488;13.436;2022-09-09T12:47:36;97679.00;;;20.20
11240;BMP180;5677;48.488;13.436;2022-09-09T12:50:16;97674.00;;;20.20
11240;BMP180;5677;48.488;13.436;2022-09-09T12:52:44;97674.00;;;20.20
11240;BMP180;5677;48.488;13.436;2022-09-09T12:55:19;97682.00;;;20.20
11240;BMP180;5677;48.488;13.436;2022-09-09T12:57:49;97677.00;;;20.20
11240;BMP180;5677;48.488;13.436;2022-09-09T13:00:19;97668.00;;;20.20
11240;BMP180;5677;48.488;13.436;2022-09-09T13:02:51;97675.00;;;20.20
11240;BMP180;5677;48.488;13.436;2022-09-09T13:05:24;97667.00;;;20.20
11240;BMP180;5677;48.488;13.436;2022-09-09T13:07:51;97669.00;;;20.20
11240;BMP180;5677;48.488;13.436;2022-09-09T13:10:27;97679.00;;;20.20
11240;BMP180;5677;48.488;13.436;2022-09-09T13:12:55;97681.00;;;20.20
11240;BMP180;5677;48.488;13.436;2022-09-09T13:15:26;97683.00;;;20.20
11240;BMP180;5677;48.488;13.436;2022-09-09T13:17:57;97680.00;;;20.20
11240;BMP180;5677;48.488;13.436;2022-09-09T13:20:27;97678.00;;;20.20
11240;BMP180;5677;48.488;13.436;2022-09-09T13:22:56;97674.00;;;20.20
11240;BMP180;5677;48.488;13.436;2022-09-09T13:25:27;97668.00;;;20.20
11240;BMP180;5677;48.488;13.436;2022-09-09T13:27:59;97670.00;;;20.20
11240;BMP180;5677;48.488;13.436;2022-09-09T13:30:30;97666.00;;;20.20
11240;BMP180;5677;48.488;13.436;2022-09-09T13:33:20;97653.00;;;20.20
11240;BMP180;5677;48.488;13.436;2022-09-09T13:35:52;97641.00;;;20.20
11240;BMP180;5677;48.488;13.436;2022-09-09T13:38:21;97639.00;;;20.20
11240;BMP180;5677;48.488;13.436;2022-09-09T13:40:58;97634.00;;;20.20
11240;BMP180;5677;48.488;13.436;2022-09-09T13:43:30;97635.00;;;20.20
11240;BMP180;5677;48.488;13.436;2022-09-09T13:46:00;97631.00;;;20.20
11240;BMP180;5677;48.488;13.436;2022-09-09T13:48:28;97636.00;;;20.20
11240;BMP180;5677;48.488;13.436;2022-09-09T13:51:01;97640.00;;;20.20
11240;BMP180;5677;48.488;13.436;2022-09-09T13:53:30;97632.00;;;20.20
11240;BMP180;5677;48.488;13.436;2022-09-09T13:55:59;97628.00;;;20.20
11240;BMP180;5677;48.488;13.436;2022-09-09T13:58:27;97625.00;;;20.20
11240;BMP180;5677;48.488;13.436;2022-09-09T14:00:54;97626.00;;;20.20
11240;BMP180;5677;48.488;13.436;2022-09-09T14:03:22;97631.00;;;20.20
11240;BMP180;5677;48.488;13.436;2022-09-09T14:05:50;97637.00;;;20.20
11240;BMP180;5677;48.488;13.436;2022-09-09T14:08:24;97639.00;;;20.20
11240;BMP180;5677;48.488;13.436;2022-09-09T14:10:52;97628.00;;;20.20
11240;BMP180;5677;48.488;13.436;2022-09-09T14:13:22;97626.00;;;20.20
11240;BMP180;5677;48.488;13.436;2022-09-09T14:15:49;97630.00;;;20.20
11240;BMP180;5677;48.488;13.436;2022-09-09T14:18:16;97628.00;;;20.20
11240;BMP180;5677;48.488;13.436;2022-09-09T14:20:44;97624.00;;;20.20
11240;BMP180;5677;48.488;13.436;2022-09-09T14:23:12;97622.00;;;20.20
11240;BMP180;5677;48.488;13.436;2022-09-09T14:25:42;97619.00;;;20.20
11240;BMP180;5677;48.488;13.436;2022-09-09T14:28:11;97622.00;;;20.20
11240;BMP180;5677;48.488;13.436;2022-09-09T14:30:42;97623.00;;;20.20
11240;BMP180;5677;48.488;13.436;2022-09-09T14:33:13;97614.00;;;20.20
11240;BMP180;5677;48.488;13.436;2022-09-09T14:35:40;97610.00;;;20.20
11240;BMP180;5677;48.488;13.436;2022-09-09T14:38:08;97607.00;;;20.20
11240;BMP180;5677;48.488;13.436;2022-09-09T14:40:36;97610.00;;;20.20
11240;BMP180;5677;48.488;13.436;2022-09-09T14:43:05;97612.00;;;20.20
11240;BMP180;5677;48.488;13.436;2022-09-09T14:45:32;97613.00;;;20.20
11240;BMP180;5677;48.488;13.436;2022-09-09T14:48:01;97620.00;;;20.20
11240;BMP180;5677;48.488;13.436;2022-09-09T14:50:28;97616.00;;;20.20